Rabun Gap, GA

11:03 AM EST on February 11, 2016 (GMT -0500)
The Yee Haw House | | Change Station
CLOSE
Current Station
Personal Weather Station
Location: Rabun Gap, GA
Elevation: 2690 ft
Nearby Weather Stations

Elev 2690 ft 34.98 °N, 83.40 °W | Updated 147 days ago

Clear
Clear
41 °F
Feels Like 37 °F
N
6
Wind Variable Wind from NW
Gusts 11 mph

Today
High -- | Low -- °F
--% Chance of Precip.
Yesterday
High -- | Low -- °F
Precip. -- in
Pressure 30.14 in
Visibility 10.0 miles
Clouds Overcast 3900 ft
Windchill 37 °F
Dew Point 24 °F
Humidity 51%
Rainfall in
Snow Depth Not available.
7:24 AM 6:12 PM
Waxing Crescent, 12% visible
METAR K1A5 111555Z AUTO 03005KT 10SM OVC039 01/M09 A3014 RMK AO2 T00091089
Pressure 30.14 in
Visibility 10.0 miles
Clouds Overcast 3900 ft
Windchill 37 °F
Dew Point 24 °F
Humidity 51%
Rainfall in
Snow Depth Not available.
7:24 AM 6:12 PM
Waxing Crescent, 12% visible
METAR K1A5 111555Z AUTO 03005KT 10SM OVC039 01/M09 A3014 RMK AO2 T00091089

10-Day Weather Forecast

Almanac

Astronomy

Feb. 11, 2016 Rise Set
Actual Time
Civil Twilight
Nautical Twilight
Astronomical Twilight
Moon
Length of Visible Light
Length of Day
Tomorrow will be .
, % of the Moon is Illuminated

Today's Extremes

State Highs State Lows

Community

WunderPhotos

Upload Photos

1,892,083 photos uploaded!

WunderBlog® & News

Nearby

Air Quality

  Air Quality AQ Index Pollutant
Not available.

Snow Depth

Station Depth Elevation

Earthquake Activity

City Distance Mag. Time & Date
Minimum magnitude displayed is 2.5.

Coastal Water Temperatures

Place Temperature

Stations

Nearby Weather Stations

Station Location Temp. Windchill Dew Point Humidity Wind Precip. Elev Updated Type
                   

Watches & Warnings

There are currently no watches in effect.